Time;durP1;ratioP1;P1;durP2;ratioP2;P2;SDS_P1;SDS_P2;PMS_P1;PMS_P2;Temp;Humidity;BMP_temperature;BMP_pressure;BME280_temperature;BME280_humidity;BME280_pressure;Samples;Min_cycle;Max_cycle;Signal;HPM_P1;HPM_P2
2024/01/07 00:01:30;;;;;;;8.73;4.60;;;6.40;99.90;;;;;;10360610;28;20044;-67
2024/01/07 00:06:31;;;;;;;11.02;5.20;;;6.40;99.90;;;;;;10374049;28;20034;-67
2024/01/07 00:11:32;;;;;;;9.13;5.20;;;6.40;99.90;;;;;;10363434;28;20697;-66
2024/01/07 00:16:32;;;;;;;8.70;4.63;;;6.40;99.90;;;;;;10365888;28;20597;-67
2024/01/07 00:21:34;;;;;;;9.68;5.70;;;6.30;99.90;;;;;;10374578;28;20549;-66
2024/01/07 00:26:35;;;;;;;11.30;5.57;;;6.30;99.90;;;;;;10355535;28;20112;-66
2024/01/07 00:31:35;;;;;;;10.00;5.90;;;6.30;99.90;;;;;;10377496;28;20125;-66
2024/01/07 00:36:36;;;;;;;9.02;5.05;;;6.30;99.90;;;;;;10371069;28;20037;-67
2024/01/07 00:41:36;;;;;;;8.07;4.97;;;6.30;99.90;;;;;;10374902;28;20021;-66
2024/01/07 00:46:38;;;;;;;9.30;4.68;;;6.30;99.90;;;;;;10370090;28;20025;-66
2024/01/07 00:51:38;;;;;;;8.95;4.95;;;6.30;99.90;;;;;;10375856;28;20052;-67
2024/01/07 00:56:39;;;;;;;7.47;5.00;;;6.30;99.90;;;;;;10362734;28;20029;-64
2024/01/07 01:01:39;;;;;;;10.40;5.50;;;6.30;99.90;;;;;;10358285;28;20026;-67
2024/01/07 01:06:40;;;;;;;10.00;6.00;;;6.30;99.90;;;;;;10343863;28;20026;-67
2024/01/07 01:11:40;;;;;;;8.82;5.30;;;6.30;99.90;;;;;;10357418;28;20521;-65
2024/01/07 01:16:41;;;;;;;8.55;5.35;;;6.30;99.90;;;;;;10359347;28;20014;-66
2024/01/07 01:21:42;;;;;;;10.93;5.28;;;6.30;99.90;;;;;;10357776;28;20037;-66
2024/01/07 01:26:42;;;;;;;9.18;5.13;;;6.30;99.90;;;;;;10333263;28;20025;-66
2024/01/07 01:31:43;;;;;;;10.77;5.50;;;6.30;99.90;;;;;;10362556;28;20056;-67
2024/01/07 01:36:43;;;;;;;10.68;5.65;;;6.30;99.90;;;;;;10355749;28;20018;-67
2024/01/07 01:41:44;;;;;;;9.95;5.60;;;6.30;99.90;;;;;;10341084;28;20060;-66
2024/01/07 01:46:46;;;;;;;9.02;5.07;;;6.30;99.90;;;;;;10357530;28;20489;-66
2024/01/07 01:51:47;;;;;;;8.80;5.20;;;6.30;99.90;;;;;;10358967;28;20105;-67
2024/01/07 01:56:48;;;;;;;7.05;4.40;;;6.30;99.90;;;;;;10363573;28;20022;-66
2024/01/07 02:01:49;;;;;;;8.63;5.07;;;6.20;99.90;;;;;;10338626;28;20406;-66
2024/01/07 02:06:49;;;;;;;7.78;4.90;;;6.30;99.90;;;;;;10359810;28;20019;-67
2024/01/07 02:12:04;;;;;;;8.50;5.05;;;6.20;99.90;;;;;;10360832;28;20034;-67
2024/01/07 02:17:05;;;;;;;10.10;5.13;;;6.20;99.90;;;;;;10361678;28;20014;-65
2024/01/07 02:22:05;;;;;;;10.48;5.45;;;6.20;99.90;;;;;;10360131;28;20022;-66
2024/01/07 02:27:06;;;;;;;7.40;4.47;;;6.20;99.90;;;;;;10359482;28;20278;-66
2024/01/07 02:32:06;;;;;;;9.40;4.93;;;6.20;99.90;;;;;;10364601;28;20048;-67
2024/01/07 02:37:07;;;;;;;8.07;4.70;;;6.20;99.90;;;;;;10359556;28;20222;-65
2024/01/07 02:42:08;;;;;;;8.98;4.63;;;6.20;99.90;;;;;;10336479;28;20026;-65
2024/01/07 02:47:08;;;;;;;7.93;5.10;;;6.20;99.90;;;;;;10359077;28;20036;-66
2024/01/07 02:52:09;;;;;;;8.55;4.20;;;6.20;99.90;;;;;;10358568;28;20026;-67
2024/01/07 02:57:09;;;;;;;7.60;4.80;;;6.20;99.90;;;;;;10363935;28;20026;-66
2024/01/07 03:02:10;;;;;;;8.80;5.43;;;6.20;99.90;;;;;;10362448;28;20013;-66
2024/01/07 03:07:11;;;;;;;8.77;4.60;;;6.50;99.90;;;;;;10362601;28;20039;-66
2024/01/07 03:12:11;;;;;;;8.75;4.65;;;6.20;99.90;;;;;;10357057;28;20026;-66
2024/01/07 03:17:12;;;;;;;7.53;4.90;;;6.20;99.90;;;;;;10362149;28;20151;-67
2024/01/07 03:22:13;;;;;;;8.90;5.25;;;6.20;99.90;;;;;;10369962;28;20102;-67
2024/01/07 03:27:13;;;;;;;8.70;4.82;;;6.10;99.90;;;;;;10368564;28;20486;-67
2024/01/07 03:32:14;;;;;;;8.15;4.65;;;6.10;99.90;;;;;;10356082;28;20397;-66
2024/01/07 03:37:14;;;;;;;9.98;5.10;;;6.10;99.90;;;;;;10370492;28;20354;-67
2024/01/07 03:42:16;;;;;;;8.98;4.30;;;6.10;99.90;;;;;;10367770;28;20057;-67
2024/01/07 03:47:17;;;;;;;9.77;4.90;;;6.10;99.90;;;;;;10368434;28;20695;-66
2024/01/07 03:52:17;;;;;;;7.68;4.72;;;6.10;99.90;;;;;;10358467;28;20018;-67
2024/01/07 03:57:18;;;;;;;7.88;4.55;;;6.10;99.90;;;;;;10369277;28;20021;-67
2024/01/07 04:02:19;;;;;;;7.47;4.30;;;6.10;99.90;;;;;;10370160;28;20352;-66
2024/01/07 04:07:19;;;;;;;7.43;4.15;;;6.10;99.90;;;;;;10374943;28;20096;-65
2024/01/07 04:12:20;;;;;;;7.95;4.68;;;6.10;99.90;;;;;;10367445;28;20024;-66
2024/01/07 04:17:20;;;;;;;7.80;4.63;;;6.10;99.90;;;;;;10374344;28;20494;-66
2024/01/07 04:22:21;;;;;;;7.68;4.70;;;6.10;99.90;;;;;;10372899;28;20470;-65
2024/01/07 04:27:22;;;;;;;6.55;4.45;;;6.10;99.90;;;;;;10369238;28;20489;-66
2024/01/07 04:32:22;;;;;;;9.18;4.70;;;6.10;99.90;;;;;;10372184;28;20030;-65
2024/01/07 04:37:24;;;;;;;7.18;3.97;;;6.10;99.90;;;;;;10362576;28;20028;-66
2024/01/07 04:42:24;;;;;;;7.18;4.25;;;6.10;99.90;;;;;;10364598;28;20030;-67
2024/01/07 04:47:30;;;;;;;6.53;4.07;;;6.10;99.90;;;;;;10377609;28;20025;-67
2024/01/07 04:52:30;;;;;;;6.53;4.15;;;6.10;99.90;;;;;;10376043;28;20091;-67
2024/01/07 04:57:31;;;;;;;7.45;4.20;;;6.10;99.90;;;;;;10381089;28;20022;-67
2024/01/07 05:02:31;;;;;;;8.80;4.40;;;6.00;99.90;;;;;;10377518;28;20022;-67
2024/01/07 05:07:32;;;;;;;5.47;3.80;;;6.10;99.90;;;;;;10378317;28;20084;-67
2024/01/07 05:12:33;;;;;;;6.10;3.92;;;6.00;99.90;;;;;;10380998;28;20405;-67
2024/01/07 05:17:33;;;;;;;6.28;3.80;;;6.00;99.90;;;;;;10379859;28;20081;-67
2024/01/07 05:22:34;;;;;;;6.72;3.80;;;6.00;99.90;;;;;;10384439;28;20022;-67
2024/01/07 05:27:34;;;;;;;6.10;3.50;;;6.00;99.90;;;;;;10382323;28;20513;-67
2024/01/07 05:32:35;;;;;;;8.02;4.07;;;6.00;99.90;;;;;;10379243;28;20641;-67
2024/01/07 05:37:36;;;;;;;6.40;3.85;;;6.00;99.90;;;;;;10379868;28;20045;-67
2024/01/07 05:42:36;;;;;;;5.95;3.45;;;6.00;99.90;;;;;;10371250;28;20029;-67
2024/01/07 05:47:37;;;;;;;5.65;3.50;;;6.00;99.90;;;;;;10384289;28;20050;-64
2024/01/07 05:52:37;;;;;;;7.43;3.60;;;6.00;99.90;;;;;;10371243;28;20030;-67
2024/01/07 05:57:38;;;;;;;8.15;3.95;;;6.00;99.90;;;;;;10366367;28;20030;-67
2024/01/07 06:02:39;;;;;;;4.35;2.92;;;6.00;99.90;;;;;;10380396;28;20468;-67
2024/01/07 06:07:40;;;;;;;5.15;3.28;;;5.90;99.90;;;;;;10377361;28;20029;-67
2024/01/07 06:12:41;;;;;;;6.90;3.15;;;5.90;99.90;;;;;;10374096;28;20033;-67
2024/01/07 06:17:41;;;;;;;4.63;2.75;;;5.90;99.90;;;;;;10380875;28;20045;-67
2024/01/07 06:22:42;;;;;;;5.63;3.50;;;5.90;99.90;;;;;;10375614;28;20392;-67
2024/01/07 06:27:43;;;;;;;5.53;2.92;;;5.90;99.90;;;;;;10377404;28;20029;-66
2024/01/07 06:32:43;;;;;;;6.25;2.90;;;5.90;99.90;;;;;;10358426;28;20080;-67
2024/01/07 06:37:45;;;;;;;4.65;2.83;;;5.90;99.90;;;;;;10363451;28;20033;-66
2024/01/07 06:42:47;;;;;;;5.13;2.90;;;5.90;99.90;;;;;;10371759;28;20616;-67
2024/01/07 06:47:48;;;;;;;7.63;2.80;;;5.90;99.90;;;;;;10372185;28;20026;-67
2024/01/07 06:52:49;;;;;;;5.35;2.72;;;5.80;99.90;;;;;;10365078;28;20030;-67
2024/01/07 06:57:50;;;;;;;3.90;2.15;;;5.80;99.90;;;;;;10380495;28;20026;-67
2024/01/07 07:02:50;;;;;;;6.18;2.50;;;5.80;99.90;;;;;;10367376;28;20018;-67
2024/01/07 07:07:51;;;;;;;4.82;2.45;;;5.80;99.90;;;;;;10376206;28;20076;-67
2024/01/07 07:12:51;;;;;;;4.65;2.05;;;5.80;99.90;;;;;;10378905;28;20029;-67
2024/01/07 07:17:52;;;;;;;3.53;2.08;;;5.80;99.90;;;;;;10364948;28;20021;-67
2024/01/07 07:22:52;;;;;;;3.53;2.00;;;5.80;99.90;;;;;;10371077;28;20033;-67
2024/01/07 07:27:53;;;;;;;3.95;2.13;;;5.80;99.90;;;;;;10369272;28;20037;-66
2024/01/07 07:32:54;;;;;;;3.90;1.75;;;5.80;99.90;;;;;;10371243;28;20076;-66
2024/01/07 07:37:56;;;;;;;3.03;1.88;;;5.80;99.90;;;;;;10362754;28;20025;-66
2024/01/07 07:42:56;;;;;;;7.72;2.10;;;5.80;99.90;;;;;;10368357;28;20034;-66
2024/01/07 07:47:57;;;;;;;5.68;1.83;;;5.70;99.90;;;;;;10362873;28;20054;-67
2024/01/07 07:52:58;;;;;;;2.90;1.98;;;5.70;99.90;;;;;;10364359;28;20025;-67
2024/01/07 07:57:58;;;;;;;2.65;1.90;;;5.70;99.90;;;;;;10366375;28;20055;-67
2024/01/07 08:02:59;;;;;;;3.75;1.88;;;5.70;99.90;;;;;;10373308;28;20044;-67
2024/01/07 08:07:59;;;;;;;3.15;1.77;;;5.70;99.90;;;;;;10378980;28;20017;-66
2024/01/07 08:13:00;;;;;;;2.47;1.20;;;5.70;99.90;;;;;;10375621;28;20096;-67
2024/01/07 08:18:02;;;;;;;2.47;1.55;;;5.70;99.90;;;;;;10381053;28;20024;-67
2024/01/07 08:23:03;;;;;;;1.55;1.10;;;5.70;99.90;;;;;;10369368;28;20381;-66
2024/01/07 08:28:03;;;;;;;4.85;1.58;;;5.70;99.90;;;;;;10374596;28;20025;-67
2024/01/07 08:33:04;;;;;;;3.03;1.10;;;5.70;99.90;;;;;;10372205;28;20087;-66
2024/01/07 08:38:05;;;;;;;3.63;1.55;;;5.70;99.90;;;;;;10370710;28;20108;-66
2024/01/07 08:43:05;;;;;;;5.05;1.60;;;5.70;99.80;;;;;;10375156;28;20076;-66
2024/01/07 08:48:06;;;;;;;2.53;1.40;;;5.70;99.80;;;;;;10370897;28;20541;-68
2024/01/07 08:53:07;;;;;;;2.58;1.42;;;5.70;99.80;;;;;;10379462;28;20097;-67
2024/01/07 08:58:07;;;;;;;3.03;1.30;;;5.60;99.80;;;;;;10383493;28;20120;-66
2024/01/07 09:03:09;;;;;;;3.03;1.50;;;5.60;99.70;;;;;;10369933;28;20036;-67
2024/01/07 09:08:11;;;;;;;1.92;0.90;;;5.60;99.70;;;;;;10378651;28;20028;-66
2024/01/07 09:13:11;;;;;;;1.77;1.10;;;5.60;99.70;;;;;;10379330;28;20029;-68
2024/01/07 09:18:12;;;;;;;1.83;1.02;;;5.60;99.70;;;;;;10379662;28;20026;-68
2024/01/07 09:23:12;;;;;;;3.22;1.35;;;6.80;99.90;;;;;;10362490;28;20026;-67
2024/01/07 09:28:13;;;;;;;2.33;1.10;;;5.60;99.60;;;;;;10355508;28;20037;-68
2024/01/07 09:33:15;;;;;;;1.48;1.13;;;5.60;99.60;;;;;;10379585;28;20088;-67
2024/01/07 09:38:16;;;;;;;2.67;1.17;;;5.60;99.60;;;;;;10355329;28;20038;-67
2024/01/07 09:43:17;;;;;;;1.90;1.10;;;5.60;99.60;;;;;;10384618;28;20025;-66
2024/01/07 09:48:17;;;;;;;3.78;1.52;;;5.60;99.60;;;;;;10369068;28;20049;-66
2024/01/07 09:53:20;;;;;;;2.90;1.00;;;5.60;99.60;;;;;;10348156;28;20026;-67
2024/01/07 09:58:21;;;;;;;2.38;0.90;;;5.60;99.60;;;;;;10366708;28;20018;-67
2024/01/07 10:03:21;;;;;;;2.50;1.10;;;5.70;99.60;;;;;;10371036;28;20042;-67
2024/01/07 10:08:22;;;;;;;1.77;1.20;;;5.70;99.50;;;;;;10366893;28;20025;-67
2024/01/07 10:13:22;;;;;;;2.33;1.10;;;5.70;99.40;;;;;;10373018;28;20425;-67
2024/01/07 10:18:24;;;;;;;3.25;1.10;;;5.80;99.30;;;;;;10375229;28;20405;-67
2024/01/07 10:23:26;;;;;;;1.75;1.00;;;5.90;99.10;;;;;;10372566;28;20034;-66
2024/01/07 10:28:27;;;;;;;1.33;0.80;;;6.10;99.00;;;;;;10376282;28;20451;-67
2024/01/07 10:33:32;;;;;;;1.58;0.90;;;6.20;98.90;;;;;;10369808;28;20040;-66
2024/01/07 10:38:35;;;;;;;1.42;0.88;;;6.20;98.80;;;;;;10371200;28;20031;-67
2024/01/07 10:43:38;;;;;;;1.42;0.70;;;6.30;98.70;;;;;;10365591;28;20064;-67
2024/01/07 10:49:03;;;;;;;2.20;1.20;;;6.40;98.70;;;;;;10377286;28;20048;-67
2024/01/07 10:54:07;;;;;;;1.30;0.90;;;6.50;98.50;;;;;;10375506;28;20055;-67
2024/01/07 10:59:08;;;;;;;1.98;0.90;;;6.50;98.50;;;;;;10378813;28;20019;-67
2024/01/07 11:04:48;;;;;;;1.60;1.00;;;6.50;98.50;;;;;;10368291;28;20501;-66
2024/01/07 11:10:20;;;;;;;2.45;0.98;;;6.50;98.60;;;;;;10358627;28;20033;-67
2024/01/07 11:15:49;;;;;;;1.35;0.73;;;6.40;98.70;;;;;;10389748;28;20095;-68
2024/01/07 11:20:50;;;;;;;1.88;1.00;;;6.40;98.80;;;;;;10364852;28;20037;-66
2024/01/07 11:25:51;;;;;;;0.90;0.75;;;6.30;99.00;;;;;;10348952;28;20032;-67
2024/01/07 11:30:54;;;;;;;1.15;0.73;;;6.30;99.10;;;;;;10362666;28;20181;-67
2024/01/07 11:36:01;;;;;;;1.42;0.80;;;6.30;99.10;;;;;;10357665;28;20509;-68
2024/01/07 11:41:05;;;;;;;2.00;0.70;;;6.30;99.20;;;;;;10367113;28;20160;-69
2024/01/07 11:46:05;;;;;;;3.33;1.58;;;6.30;99.00;;;;;;10360247;28;20021;-71
2024/01/07 11:51:06;;;;;;;3.30;1.13;;;6.30;99.00;;;;;;10360557;28;20843;-67
2024/01/07 11:56:08;;;;;;;2.72;0.80;;;6.30;99.10;;;;;;10360371;28;20025;-67
2024/01/07 12:01:09;;;;;;;1.85;0.90;;;6.30;99.20;;;;;;10372787;28;20037;-67
2024/01/07 12:06:13;;;;;;;2.13;0.85;;;6.30;99.10;;;;;;10365090;28;20025;-67
2024/01/07 12:11:15;;;;;;;1.52;1.10;;;6.20;99.10;;;;;;10361810;28;20153;-67
2024/01/07 12:16:16;;;;;;;1.33;0.80;;;6.20;99.20;;;;;;10370030;28;20045;-67
2024/01/07 12:21:23;;;;;;;2.10;1.02;;;6.20;99.20;;;;;;10369474;28;20045;-66
2024/01/07 12:26:28;;;;;;;1.23;0.80;;;6.20;99.20;;;;;;10358022;28;20232;-67
2024/01/07 12:31:31;;;;;;;1.40;0.95;;;6.20;99.20;;;;;;10373028;28;20037;-66
2024/01/07 12:36:33;;;;;;;2.75;0.80;;;6.20;99.20;;;;;;10356501;28;20026;-68
2024/01/07 12:41:34;;;;;;;2.08;0.90;;;6.10;99.10;;;;;;10363972;28;20030;-68
2024/01/07 12:46:35;;;;;;;1.58;0.90;;;6.20;99.00;;;;;;10363888;28;20029;-70
2024/01/07 12:51:35;;;;;;;2.60;1.10;;;6.20;98.80;;;;;;10361583;28;20121;-70
2024/01/07 12:56:36;;;;;;;1.92;1.10;;;6.20;98.80;;;;;;10366445;28;20040;-67
2024/01/07 13:01:36;;;;;;;2.42;1.08;;;6.30;98.90;;;;;;10366712;28;20134;-67
2024/01/07 13:06:37;;;;;;;3.58;0.90;;;6.30;98.80;;;;;;10351254;28;20931;-67
2024/01/07 13:11:38;;;;;;;6.38;2.13;;;6.30;98.90;;;;;;10363484;28;20045;-67
2024/01/07 13:16:38;;;;;;;1.60;1.05;;;6.20;98.90;;;;;;10366866;28;20028;-69
2024/01/07 13:21:39;;;;;;;1.88;1.15;;;6.20;98.90;;;;;;10364498;28;20113;-67
2024/01/07 13:26:41;;;;;;;4.70;1.02;;;6.30;98.90;;;;;;10347060;28;20112;-68
2024/01/07 13:31:42;;;;;;;2.53;1.40;;;6.30;98.80;;;;;;10351425;28;20069;-68
2024/01/07 13:36:43;;;;;;;1.80;1.17;;;6.30;98.90;;;;;;10368686;28;20108;-68
2024/01/07 13:41:44;;;;;;;3.75;1.00;;;6.20;98.90;;;;;;10365674;28;20033;-67
2024/01/07 13:46:51;;;;;;;1.73;1.13;;;6.20;98.90;;;;;;10375890;28;20510;-68
2024/01/07 13:51:52;;;;;;;1.67;0.98;;;6.20;98.90;;;;;;10363174;28;20026;-67
2024/01/07 13:56:54;;;;;;;2.95;1.10;;;6.20;99.00;;;;;;10364051;28;20104;-68
2024/01/07 14:01:54;;;;;;;1.80;1.10;;;6.10;98.90;;;;;;10350762;28;20022;-68
2024/01/07 14:06:56;;;;;;;1.83;1.23;;;6.10;99.00;;;;;;10368115;28;20026;-69
2024/01/07 14:11:57;;;;;;;3.47;1.33;;;6.10;99.00;;;;;;10372369;28;20051;-68
2024/01/07 14:16:58;;;;;;;1.77;1.08;;;6.10;99.00;;;;;;10364282;28;20084;-67
2024/01/07 14:21:59;;;;;;;2.55;1.20;;;6.10;98.90;;;;;;10375415;28;20016;-66
2024/01/07 14:26:59;;;;;;;2.13;1.23;;;6.10;98.90;;;;;;10367048;28;20038;-67
2024/01/07 14:32:02;;;;;;;1.73;1.13;;;6.10;98.90;;;;;;10368838;28;20513;-68
2024/01/07 14:37:03;;;;;;;3.30;1.40;;;6.10;98.90;;;;;;10365566;28;20021;-68
2024/01/07 14:42:04;;;;;;;1.48;1.30;;;6.10;99.00;;;;;;10352703;28;20060;-67
2024/01/07 14:47:04;;;;;;;4.50;1.20;;;6.00;99.00;;;;;;10358103;28;20026;-67
2024/01/07 14:52:05;;;;;;;2.97;1.27;;;6.00;99.00;;;;;;10367631;28;20097;-68
2024/01/07 14:57:08;;;;;;;2.35;1.30;;;6.00;99.00;;;;;;10370415;28;20034;-67
2024/01/07 15:02:10;;;;;;;2.97;1.13;;;6.00;99.00;;;;;;10369022;28;20013;-67
2024/01/07 15:07:10;;;;;;;2.92;1.70;;;6.00;99.00;;;;;;10375842;28;20493;-68
2024/01/07 15:12:12;;;;;;;1.85;1.23;;;6.00;99.00;;;;;;10380362;28;20116;-69
2024/01/07 15:17:13;;;;;;;2.67;1.50;;;6.00;99.00;;;;;;10382286;28;20026;-69
2024/01/07 15:22:13;;;;;;;2.28;1.40;;;6.00;98.90;;;;;;10382714;28;20038;-70
2024/01/07 15:27:14;;;;;;;3.30;1.38;;;5.90;98.90;;;;;;10377211;28;20371;-70
2024/01/07 15:32:15;;;;;;;5.07;1.70;;;5.90;98.90;;;;;;10373261;28;20041;-71
2024/01/07 15:37:19;;;;;;;4.22;1.55;;;6.30;99.10;;;;;;10392852;28;20478;-71
2024/01/07 15:42:22;;;;;;;9.65;2.05;;;5.90;99.00;;;;;;10383330;28;20030;-71
2024/01/07 15:47:23;;;;;;;3.13;1.73;;;4.90;98.80;;;;;;10388523;28;20522;-71
2024/01/07 15:52:24;;;;;;;4.10;1.88;;;5.80;99.00;;;;;;10379543;28;20037;-68
2024/01/07 15:57:24;;;;;;;2.90;1.77;;;5.80;99.00;;;;;;10382459;28;20520;-68
2024/01/07 16:02:25;;;;;;;2.85;1.65;;;5.80;99.10;;;;;;10387847;28;20030;-68
2024/01/07 16:07:25;;;;;;;3.58;1.67;;;5.80;99.10;;;;;;10377297;28;20117;-68
2024/01/07 16:12:30;;;;;;;3.33;1.60;;;5.80;99.20;;;;;;10381630;28;20026;-68
2024/01/07 16:17:30;;;;;;;4.95;2.13;;;5.70;99.20;;;;;;10362721;28;20061;-68
2024/01/07 16:22:31;;;;;;;2.90;1.58;;;5.10;99.10;;;;;;10373862;28;20037;-69
2024/01/07 16:27:32;;;;;;;4.18;2.05;;;5.80;99.30;;;;;;10381361;28;20034;-68
2024/01/07 16:32:33;;;;;;;4.43;1.80;;;5.70;99.30;;;;;;10379512;28;20042;-69
2024/01/07 16:37:33;;;;;;;4.55;2.05;;;5.80;99.30;;;;;;10379779;28;20048;-68
2024/01/07 16:42:34;;;;;;;4.93;2.30;;;5.80;99.30;;;;;;10364610;28;20026;-69
2024/01/07 16:47:35;;;;;;;7.43;2.70;;;5.80;99.30;;;;;;10365498;28;20134;-70
2024/01/07 16:52:36;;;;;;;10.82;2.67;;;5.70;99.20;;;;;;10367625;28;20477;-70
2024/01/07 16:57:37;;;;;;;6.18;3.03;;;5.60;99.20;;;;;;10370068;28;20049;-69
2024/01/07 17:02:38;;;;;;;6.47;3.13;;;5.60;99.30;;;;;;10377939;28;20034;-69
2024/01/07 17:07:38;;;;;;;4.90;3.17;;;5.60;99.00;;;;;;10368658;28;20048;-71
2024/01/07 17:12:39;;;;;;;6.22;3.22;;;5.60;99.00;;;;;;10375799;28;20437;-71
2024/01/07 17:17:40;;;;;;;7.15;3.45;;;5.50;98.80;;;;;;10373165;28;20044;-70
2024/01/07 17:22:41;;;;;;;7.10;3.08;;;5.50;98.80;;;;;;10373466;28;20018;-69
2024/01/07 17:27:41;;;;;;;4.95;2.92;;;5.50;98.80;;;;;;10378202;28;20029;-70
2024/01/07 17:32:43;;;;;;;5.65;3.10;;;5.40;98.70;;;;;;10373311;28;20042;-71
2024/01/07 17:37:44;;;;;;;8.35;3.75;;;5.40;98.70;;;;;;10374087;28;20517;-70
2024/01/07 17:42:44;;;;;;;6.53;2.90;;;5.30;98.60;;;;;;10370695;28;20022;-67
2024/01/07 17:47:45;;;;;;;7.00;2.92;;;5.30;98.60;;;;;;10367324;28;20057;-69
2024/01/07 17:52:45;;;;;;;4.93;2.55;;;5.40;98.70;;;;;;10372080;28;20392;-69
2024/01/07 17:57:46;;;;;;;6.70;2.97;;;5.40;98.70;;;;;;10364343;28;20037;-69
2024/01/07 18:02:47;;;;;;;5.03;2.85;;;5.40;98.60;;;;;;10369592;28;20032;-68
2024/01/07 18:07:48;;;;;;;4.93;2.60;;;5.40;98.70;;;;;;10359244;28;20426;-67
2024/01/07 18:12:49;;;;;;;4.50;2.55;;;5.40;98.70;;;;;;10363495;28;20480;-69
2024/01/07 18:17:51;;;;;;;4.35;2.70;;;5.40;98.80;;;;;;10367832;28;20123;-69
2024/01/07 18:22:51;;;;;;;3.55;2.42;;;5.40;98.80;;;;;;10359479;28;20021;-69
2024/01/07 18:27:52;;;;;;;4.85;2.53;;;5.40;98.80;;;;;;10366330;28;20394;-69
2024/01/07 18:32:52;;;;;;;5.18;2.45;;;5.40;98.80;;;;;;10361211;28;20029;-72
2024/01/07 18:37:53;;;;;;;4.07;2.15;;;5.40;98.80;;;;;;10360077;28;20192;-69
2024/01/07 18:42:54;;;;;;;4.97;2.97;;;5.60;99.10;;;;;;10361744;28;20029;-68
2024/01/07 18:47:54;;;;;;;6.20;3.50;;;5.60;98.70;;;;;;10360487;28;20018;-68
2024/01/07 18:52:55;;;;;;;4.75;2.50;;;5.50;98.70;;;;;;10338621;28;20022;-69
2024/01/07 18:57:55;;;;;;;5.47;2.88;;;5.50;98.70;;;;;;10356898;28;20030;-70
2024/01/07 19:02:56;;;;;;;5.20;2.78;;;5.50;98.70;;;;;;10344903;28;20165;-69
2024/01/07 19:07:57;;;;;;;5.35;2.72;;;5.40;98.70;;;;;;10355092;28;20030;-69
2024/01/07 19:12:58;;;;;;;4.78;2.50;;;5.40;98.70;;;;;;10365580;28;20026;-69
2024/01/07 19:17:59;;;;;;;6.22;2.30;;;6.30;99.00;;;;;;10359476;28;20018;-69
2024/01/07 19:23:00;;;;;;;4.85;2.40;;;5.40;98.80;;;;;;10361476;28;20014;-69
2024/01/07 19:28:01;;;;;;;5.70;2.38;;;5.30;98.80;;;;;;10342701;28;20101;-69
2024/01/07 19:33:03;;;;;;;3.20;2.33;;;5.30;98.80;;;;;;10355666;28;20025;-69
2024/01/07 19:38:03;;;;;;;4.82;2.50;;;5.30;98.80;;;;;;10360252;28;20105;-69
2024/01/07 19:43:04;;;;;;;4.20;2.28;;;5.30;98.80;;;;;;10361690;28;20022;-69
2024/01/07 19:48:05;;;;;;;5.30;2.05;;;5.30;98.80;;;;;;10360633;28;20026;-69
2024/01/07 19:53:05;;;;;;;4.60;1.95;;;5.00;98.70;;;;;;10362367;28;20375;-70
2024/01/07 19:58:06;;;;;;;4.28;2.00;;;5.20;98.70;;;;;;10368816;28;20145;-69
2024/01/07 20:03:06;;;;;;;4.78;2.22;;;5.20;98.70;;;;;;10369336;28;20040;-68
2024/01/07 20:08:08;;;;;;;3.88;2.33;;;5.20;98.60;;;;;;10365553;28;20036;-68
2024/01/07 20:13:08;;;;;;;3.22;1.85;;;5.20;98.60;;;;;;10368699;28;20017;-69
2024/01/07 20:18:09;;;;;;;5.13;1.92;;;5.20;98.60;;;;;;10363160;28;20033;-69
2024/01/07 20:23:09;;;;;;;4.75;2.30;;;5.20;98.60;;;;;;10364219;28;20524;-69
2024/01/07 20:28:10;;;;;;;4.88;2.00;;;5.30;98.60;;;;;;10360972;28;20047;-70
2024/01/07 20:33:14;;;;;;;3.05;2.03;;;5.20;98.50;;;;;;10369763;28;20520;-69
2024/01/07 20:38:15;;;;;;;3.65;1.67;;;5.20;98.50;;;;;;10369684;28;20022;-68
2024/01/07 20:43:15;;;;;;;3.30;1.90;;;5.20;98.50;;;;;;10366990;28;20025;-69
2024/01/07 20:48:16;;;;;;;3.80;1.88;;;5.20;98.50;;;;;;10367063;28;20033;-69
2024/01/07 20:53:18;;;;;;;3.10;1.83;;;5.10;98.40;;;;;;10370523;28;20103;-69
2024/01/07 20:58:19;;;;;;;3.13;1.73;;;5.20;98.40;;;;;;10370125;28;20025;-69
2024/01/07 21:03:20;;;;;;;2.58;1.75;;;5.10;98.40;;;;;;10369337;28;20025;-69
2024/01/07 21:08:21;;;;;;;2.53;1.50;;;5.10;98.30;;;;;;10363016;28;20367;-69
2024/01/07 21:13:21;;;;;;;3.28;1.85;;;5.10;98.40;;;;;;10361120;28;20748;-68
2024/01/07 21:18:22;;;;;;;2.60;1.40;;;5.10;98.30;;;;;;10366557;28;20033;-68
2024/01/07 21:23:22;;;;;;;3.00;1.52;;;5.10;98.30;;;;;;10362241;28;20549;-68
2024/01/07 21:28:23;;;;;;;4.30;1.50;;;5.10;98.30;;;;;;10367358;28;20026;-68
2024/01/07 21:33:26;;;;;;;2.00;1.48;;;5.10;98.30;;;;;;10362378;28;20234;-72
2024/01/07 21:38:26;;;;;;;1.92;1.50;;;5.10;98.30;;;;;;10361492;28;20022;-68
2024/01/07 21:43:27;;;;;;;2.05;1.40;;;5.10;98.20;;;;;;10370846;28;20079;-69
2024/01/07 21:48:27;;;;;;;2.97;1.58;;;5.10;98.10;;;;;;10353743;28;20045;-68
2024/01/07 21:53:28;;;;;;;3.28;1.83;;;5.10;98.10;;;;;;10368880;28;21371;-68
2024/01/07 21:58:30;;;;;;;3.17;1.48;;;5.10;98.10;;;;;;10353957;28;20022;-68
2024/01/07 22:03:31;;;;;;;6.30;1.80;;;5.10;98.10;;;;;;10348723;28;20041;-68
2024/01/07 22:08:31;;;;;;;3.40;1.70;;;5.00;98.10;;;;;;10356733;28;20395;-68
2024/01/07 22:13:32;;;;;;;2.42;1.42;;;5.10;98.00;;;;;;10361968;28;20059;-68
2024/01/07 22:18:33;;;;;;;3.70;1.50;;;5.00;98.00;;;;;;10357418;28;20022;-68
2024/01/07 22:23:33;;;;;;;3.10;1.70;;;5.00;98.00;;;;;;10362208;28;20022;-68
2024/01/07 22:28:34;;;;;;;3.80;1.58;;;5.00;97.90;;;;;;10359851;28;20065;-68
2024/01/07 22:33:34;;;;;;;3.15;1.85;;;5.00;97.90;;;;;;10357670;28;20037;-68
2024/01/07 22:38:35;;;;;;;3.72;1.90;;;5.00;97.90;;;;;;10349898;28;20034;-68
2024/01/07 22:43:36;;;;;;;2.40;1.67;;;5.00;97.90;;;;;;10358879;28;20029;-68
2024/01/07 22:48:37;;;;;;;4.25;1.73;;;5.00;97.90;;;;;;10338669;28;20044;-68
2024/01/07 22:53:38;;;;;;;2.95;1.80;;;5.00;97.80;;;;;;10354629;28;20033;-68
2024/01/07 22:58:38;;;;;;;2.97;2.10;;;5.00;97.10;;;;;;10361682;28;20022;-68
2024/01/07 23:03:39;;;;;;;3.13;1.90;;;6.10;98.00;;;;;;10365303;28;20018;-68
2024/01/07 23:08:39;;;;;;;2.65;1.73;;;4.90;97.70;;;;;;10360277;28;20266;-67
2024/01/07 23:13:40;;;;;;;3.05;2.10;;;5.00;97.70;;;;;;10364890;28;20075;-68
2024/01/07 23:18:41;;;;;;;3.85;1.60;;;4.90;97.70;;;;;;10357789;28;20028;-68
2024/01/07 23:23:41;;;;;;;2.40;1.63;;;4.90;97.70;;;;;;10358651;28;20053;-68
2024/01/07 23:28:42;;;;;;;2.67;1.80;;;4.90;97.60;;;;;;10357249;28;20030;-68
2024/01/07 23:33:42;;;;;;;3.60;2.00;;;4.90;97.60;;;;;;10361807;28;20033;-67
2024/01/07 23:38:43;;;;;;;3.90;2.05;;;4.90;97.60;;;;;;10370240;28;20202;-67
2024/01/07 23:43:43;;;;;;;5.20;2.10;;;4.90;97.60;;;;;;10374827;28;20037;-67
2024/01/07 23:48:44;;;;;;;3.67;2.00;;;4.90;97.50;;;;;;10365970;28;20030;-68
2024/01/07 23:53:44;;;;;;;3.20;1.77;;;4.80;97.50;;;;;;10369523;28;20022;-68
2024/01/07 23:58:45;;;;;;;4.32;2.25;;;4.80;97.40;;;;;;10366871;28;20402;-68
